Time;durP1;ratioP1;P1;durP2;ratioP2;P2;SDS_P1;SDS_P2;PMS_P1;PMS_P2;Temp;Humidity;BMP_temperature;BMP_pressure;BME280_temperature;BME280_humidity;BME280_pressure;Samples;Min_cycle;Max_cycle;Signal;HPM_P1;HPM_P2
2022/03/30 00:02:12;;;;;;;2.70;1.80;;;;;;;4.80;87.04;91915.53;5079285;27;20226;-80
2022/03/30 00:04:39;;;;;;;1.57;1.57;;;;;;;4.71;86.26;91888.31;5078394;27;20460;-80
2022/03/30 00:07:07;;;;;;;1.20;1.20;;;;;;;4.92;86.82;91916.81;5077864;27;20638;-80
2022/03/30 00:09:36;;;;;;;4.67;2.40;;;;;;;4.88;87.21;91923.59;5078337;27;20579;-80
2022/03/30 00:12:03;;;;;;;1.77;1.77;;;;;;;4.93;87.63;91935.97;5077803;27;20460;-81
2022/03/30 00:14:31;;;;;;;3.40;1.97;;;;;;;4.98;87.54;91924.94;5078116;27;20552;-81
2022/03/30 00:16:58;;;;;;;1.40;1.40;;;;;;;5.05;87.04;91922.22;5077616;27;20196;-80
2022/03/30 00:19:26;;;;;;;3.30;3.10;;;;;;;5.09;86.91;91948.78;5078103;27;20541;-79
2022/03/30 00:21:53;;;;;;;1.43;1.43;;;;;;;4.55;87.19;91873.00;5077664;27;20470;-80
2022/03/30 00:24:20;;;;;;;1.20;1.20;;;;;;;4.62;87.69;91893.59;5078181;27;20548;-80
2022/03/30 00:26:49;;;;;;;1.10;1.10;;;;;;;4.56;87.40;91872.09;5077754;27;20482;-81
2022/03/30 00:29:17;;;;;;;2.03;1.47;;;;;;;5.11;87.38;91942.88;5078002;27;20568;-81
2022/03/30 00:31:45;;;;;;;1.77;1.77;;;;;;;4.94;87.05;91933.41;5076176;27;20485;-81
2022/03/30 00:34:13;;;;;;;1.10;1.10;;;;;;;4.95;87.08;91917.53;5077863;27;20572;-81
2022/03/30 00:36:40;;;;;;;1.90;1.90;;;;;;;4.83;87.04;91892.91;5077805;27;20552;-80
2022/03/30 00:39:08;;;;;;;2.43;1.80;;;;;;;4.87;87.08;91906.94;5076825;27;20244;-79
2022/03/30 00:41:35;;;;;;;2.13;1.93;;;;;;;4.73;87.73;91908.28;5077506;27;20568;-80
2022/03/30 00:44:10;;;;;;;1.80;1.80;;;;;;;4.53;88.45;91886.41;5077033;27;20472;-81
2022/03/30 00:46:38;;;;;;;1.37;1.37;;;;;;;4.28;88.48;91851.34;5077436;27;20560;-80
2022/03/30 00:49:05;;;;;;;2.17;2.00;;;;;;;4.56;88.62;91898.81;5077102;27;20595;-80
2022/03/30 00:51:33;;;;;;;1.73;1.73;;;;;;;4.51;88.91;91898.13;5078564;27;20548;-80
2022/03/30 00:54:01;;;;;;;1.50;1.50;;;;;;;4.23;89.00;91867.34;5078253;27;20459;-80
2022/03/30 00:56:31;;;;;;;1.27;1.27;;;;;;;4.52;89.26;91903.09;5077666;27;20628;-80
2022/03/30 00:58:58;;;;;;;2.67;2.50;;;;;;;4.77;89.38;91920.63;5076864;27;20676;-81
2022/03/30 01:01:27;;;;;;;1.53;1.53;;;;;;;4.86;89.12;91922.00;5078609;27;20211;-80
2022/03/30 01:03:55;;;;;;;1.63;1.60;;;;;;;4.25;88.60;91830.63;5070841;27;20196;-80
2022/03/30 01:06:23;;;;;;;3.83;1.63;;;;;;;4.60;88.72;91892.84;5074006;27;20579;-81
2022/03/30 01:08:51;;;;;;;1.57;1.57;;;;;;;4.70;88.48;91906.69;5076544;27;20591;-80
2022/03/30 01:11:19;;;;;;;2.00;1.90;;;;;;;4.66;88.54;91900.16;5077098;27;20563;-80
2022/03/30 01:13:48;;;;;;;1.73;1.73;;;;;;;4.72;88.50;91914.16;5074125;27;20706;-80
2022/03/30 01:16:16;;;;;;;1.70;1.60;;;;;;;4.62;88.63;91907.81;5077149;27;20496;-80
2022/03/30 01:18:45;;;;;;;2.60;2.50;;;;;;;4.78;88.48;91919.78;5076559;27;20708;-81
2022/03/30 01:21:14;;;;;;;1.87;1.87;;;;;;;4.94;87.97;91935.94;5077074;27;20481;-81
2022/03/30 01:23:42;;;;;;;1.47;1.47;;;;;;;4.73;88.43;91919.09;5076748;27;20563;-81
2022/03/30 01:26:09;;;;;;;2.47;1.77;;;;;;;4.52;88.04;91872.25;5056293;28;20556;-81
2022/03/30 01:28:37;;;;;;;1.50;1.50;;;;;;;4.49;87.73;91847.34;5056210;28;20193;-81
2022/03/30 01:33:49;;;;;;;1.50;1.50;;;;;;;4.44;88.29;91859.19;5056932;28;20602;-80
2022/03/30 01:36:19;;;;;;;2.33;2.13;;;;;;;4.84;87.77;91903.75;5056703;28;20640;-81
2022/03/30 01:38:46;;;;;;;1.20;1.20;;;;;;;4.51;86.82;91838.09;5056509;28;20696;-81
2022/03/30 01:41:14;;;;;;;2.50;2.07;;;;;;;4.49;86.66;91843.19;5056401;28;20572;-81
2022/03/30 01:43:41;;;;;;;3.50;1.93;;;;;;;4.52;86.47;91832.25;5055697;28;20489;-81
2022/03/30 01:46:09;;;;;;;1.93;1.93;;;;;;;4.65;86.62;91857.66;5056020;28;20547;-81
2022/03/30 01:48:37;;;;;;;1.63;1.63;;;;;;;4.41;87.13;91852.59;5057779;27;20506;-81
2022/03/30 01:51:05;;;;;;;1.90;1.90;;;;;;;4.25;87.34;91838.13;5056100;28;20543;-81
2022/03/30 01:53:34;;;;;;;2.73;2.53;;;;;;;4.55;88.21;91904.69;5056393;28;20200;-80
2022/03/30 01:56:01;;;;;;;1.93;1.90;;;;;;;4.09;88.49;91856.13;5056780;28;20180;-81
2022/03/30 01:58:28;;;;;;;1.40;1.40;;;;;;;4.23;88.84;91874.84;5057005;28;20680;-81
2022/03/30 02:00:57;;;;;;;2.07;1.97;;;;;;;4.39;88.90;91901.03;5055352;28;20607;-81
2022/03/30 02:03:25;;;;;;;1.50;1.50;;;;;;;4.54;89.29;91928.88;5056651;28;20575;-81
2022/03/30 02:05:54;;;;;;;3.17;2.97;;;;;;;4.48;88.23;91901.56;5055944;28;20555;-81
2022/03/30 02:08:24;;;;;;;6.20;2.13;;;;;;;4.32;87.67;91862.09;5056025;28;20308;-81
2022/03/30 02:10:53;;;;;;;2.27;1.80;;;;;;;4.68;87.86;91900.09;5055820;28;20482;-81
2022/03/30 02:13:21;;;;;;;1.87;1.80;;;;;;;4.32;88.36;91862.91;5055882;28;20533;-81
2022/03/30 02:15:49;;;;;;;1.90;1.77;;;;;;;4.14;88.87;91851.78;5055831;28;20656;-81
2022/03/30 02:18:16;;;;;;;2.93;2.83;;;;;;;4.38;88.89;91914.38;5056372;28;20498;-80
2022/03/30 02:20:44;;;;;;;1.60;1.60;;;;;;;3.80;89.94;91837.88;5056609;28;20497;-80
2022/03/30 02:23:11;;;;;;;1.63;1.53;;;;;;;3.77;90.52;91842.97;5055437;28;20484;-82
2022/03/30 02:25:38;;;;;;;1.60;1.60;;;;;;;3.87;90.11;91846.81;5056299;28;20520;-82
2022/03/30 02:28:08;;;;;;;1.87;1.37;;;;;;;4.36;90.62;91923.63;5056622;28;20441;-81
2022/03/30 02:30:35;;;;;;;4.93;2.30;;;;;;;4.50;89.63;91931.53;5055994;28;20552;-80
2022/03/30 02:33:03;;;;;;;5.07;2.03;;;;;;;4.03;89.84;91848.81;5056370;28;20613;-80
2022/03/30 02:35:31;;;;;;;1.73;1.63;;;;;;;3.93;90.68;91854.13;5056237;28;20197;-80
2022/03/30 02:37:59;;;;;;;11.07;1.63;;;;;;;4.03;90.65;91876.28;5055508;28;20193;-80
2022/03/30 02:40:27;;;;;;;1.23;1.23;;;;;;;3.90;90.25;91840.03;5055171;28;20545;-81
2022/03/30 02:42:54;;;;;;;1.27;1.27;;;;;;;3.85;90.69;91849.34;5056210;28;20429;-81
2022/03/30 02:45:23;;;;;;;1.97;1.97;;;;;;;4.35;89.97;91906.97;5055823;28;20500;-81
2022/03/30 02:50:35;;;;;;;2.97;2.87;;;;;;;4.56;88.93;91929.63;5055584;28;20466;-81
2022/03/30 02:53:03;;;;;;;2.03;2.03;;;;;;;4.53;89.09;91933.91;5055931;28;20592;-81
2022/03/30 02:55:30;;;;;;;4.47;2.20;;;;;;;4.38;89.77;91912.72;5058928;28;20493;-80
2022/03/30 02:57:59;;;;;;;2.07;2.03;;;;;;;4.26;88.64;91883.09;5059246;28;20576;-81
2022/03/30 03:00:28;;;;;;;2.83;2.53;;;;;;;4.01;88.95;91845.53;5059006;28;20545;-81
2022/03/30 03:02:55;;;;;;;3.53;2.83;;;;;;;4.38;89.42;91927.72;5059210;28;20581;-81
2022/03/30 03:05:23;;;;;;;2.73;2.53;;;;;;;3.67;90.55;91853.22;5058490;28;20511;-81
2022/03/30 03:07:50;;;;;;;2.63;2.53;;;;;;;4.12;91.33;91925.97;5058902;28;20514;-81
2022/03/30 03:10:18;;;;;;;1.90;1.80;;;;;;;4.01;90.90;91904.66;5058425;28;20608;-81
2022/03/30 03:12:46;;;;;;;2.00;1.90;;;;;;;3.83;89.89;91852.78;5061573;28;20434;-81
2022/03/30 03:15:13;;;;;;;2.07;1.97;;;;;;;4.18;89.85;91914.97;5059391;28;20468;-81
2022/03/30 03:17:42;;;;;;;3.83;3.73;;;;;;;4.09;90.63;91916.09;5059138;28;20580;-80
2022/03/30 03:20:11;;;;;;;3.30;3.03;;;;;;;3.80;91.31;91886.16;5059339;28;20608;-81
2022/03/30 03:22:39;;;;;;;2.70;2.60;;;;;;;3.90;91.70;91934.97;5058937;28;20527;-80
2022/03/30 03:25:08;;;;;;;3.00;2.90;;;;;;;3.84;92.64;91925.16;5058746;28;20448;-81
2022/03/30 03:27:35;;;;;;;2.63;2.43;;;;;;;3.65;92.21;91907.41;5059576;28;20580;-81
2022/03/30 03:30:03;;;;;;;3.03;2.93;;;;;;;3.42;92.44;91866.44;5060213;28;20243;-81
2022/03/30 03:32:31;;;;;;;1.97;1.97;;;;;;;3.92;91.58;91925.75;5059040;28;20523;-81
2022/03/30 03:35:00;;;;;;;2.33;2.33;;;;;;;3.87;91.19;91905.09;5059079;28;20563;-81
2022/03/30 03:37:27;;;;;;;4.40;4.10;;;;;;;3.71;90.85;91863.94;5058852;28;20571;-81
2022/03/30 03:39:55;;;;;;;3.87;3.17;;;;;;;3.81;90.91;91882.78;5058375;28;20513;-81
2022/03/30 03:42:22;;;;;;;2.37;2.37;;;;;;;4.05;90.60;91926.22;5058107;28;20580;-81
2022/03/30 03:44:51;;;;;;;2.70;2.60;;;;;;;3.42;90.91;91836.50;5058349;28;20557;-81
2022/03/30 03:47:18;;;;;;;2.63;2.40;;;;;;;3.40;90.85;91815.75;5058572;28;20255;-81
2022/03/30 03:49:46;;;;;;;2.03;1.97;;;;;;;3.45;90.99;91838.91;5058679;28;20629;-81
2022/03/30 03:52:14;;;;;;;2.13;2.03;;;;;;;3.32;91.72;91828.47;5058809;28;20309;-81
2022/03/30 03:54:42;;;;;;;2.67;2.57;;;;;;;3.15;92.66;91821.44;5058547;28;20266;-81
2022/03/30 03:57:09;;;;;;;2.00;2.00;;;;;;;3.41;91.77;91843.16;5058747;28;20671;-81
2022/03/30 03:59:37;;;;;;;2.77;2.67;;;;;;;3.96;91.59;91912.31;5057927;28;20495;-81
2022/03/30 04:02:07;;;;;;;2.40;2.30;;;;;;;3.61;91.25;91860.06;5056354;28;20495;-81
2022/03/30 04:04:35;;;;;;;2.50;2.40;;;;;;;3.82;91.81;91894.41;5057756;28;20555;-81
2022/03/30 04:07:02;;;;;;;3.93;3.77;;;;;;;3.96;92.10;91923.97;5057626;28;20596;-81
2022/03/30 04:09:32;;;;;;;33.77;20.93;;;;;;;3.52;90.65;91855.34;5057517;28;20568;-82
2022/03/30 04:11:59;;;;;;;28.67;17.73;;;;;;;3.42;90.37;91854.78;5057194;28;20577;-81
2022/03/30 04:14:26;;;;;;;14.63;12.33;;;;;;;3.87;90.85;91937.56;5058571;28;20606;-81
2022/03/30 04:16:54;;;;;;;10.93;9.60;;;;;;;3.77;89.85;91912.91;5057920;28;20189;-82
2022/03/30 04:19:21;;;;;;;5.17;4.67;;;;;;;3.58;90.70;91892.63;5059204;28;20580;-81
2022/03/30 04:21:49;;;;;;;5.67;5.37;;;;;;;3.66;90.51;91901.50;5057370;28;20487;-82
2022/03/30 04:24:17;;;;;;;6.87;6.30;;;;;;;3.37;90.20;91864.09;5057088;28;20565;-81
2022/03/30 04:26:45;;;;;;;5.77;5.27;;;;;;;3.66;90.64;91915.72;5057119;28;20604;-80
2022/03/30 04:29:15;;;;;;;7.10;6.60;;;;;;;3.46;90.39;91885.47;5057694;28;20459;-77
2022/03/30 04:31:43;;;;;;;4.83;4.47;;;;;;;3.45;90.78;91863.84;5058537;28;20257;-75
2022/03/30 04:34:10;;;;;;;5.40;4.77;;;;;;;4.11;90.78;91948.53;5057851;27;20576;-77
2022/03/30 04:36:38;;;;;;;5.07;4.83;;;;;;;3.80;89.52;91866.16;5061861;27;20568;-78
2022/03/30 04:39:06;;;;;;;7.63;7.10;;;;;;;3.85;88.75;91868.53;5061796;27;20509;-79
2022/03/30 04:41:33;;;;;;;6.83;6.47;;;;;;;4.30;88.92;91933.78;5060138;27;20568;-79
2022/03/30 04:44:08;;;;;;;11.27;7.63;;;;;;;3.92;89.00;91884.97;5059246;27;20504;-78
2022/03/30 04:46:36;;;;;;;11.60;10.83;;;;;;;3.72;89.46;91855.56;5057856;28;20510;-79
2022/03/30 04:49:05;;;;;;;12.67;11.33;;;;;;;3.93;90.23;91899.09;5056017;28;20792;-78
2022/03/30 04:51:34;;;;;;;18.73;11.53;;;;;;;3.97;90.33;91908.94;5055666;28;20225;-79
2022/03/30 04:54:03;;;;;;;9.07;8.27;;;;;;;3.99;90.45;91909.75;5060188;27;20196;-78
2022/03/30 04:56:31;;;;;;;5.10;4.77;;;;;;;3.55;90.55;91876.03;5058426;27;20569;-80
2022/03/30 04:58:59;;;;;;;3.27;3.10;;;;;;;3.92;91.63;91932.44;5061661;27;20681;-79
2022/03/30 05:01:28;;;;;;;4.93;4.73;;;;;;;3.74;92.25;91908.81;5058274;27;20200;-77
2022/03/30 05:04:02;;;;;;;9.60;8.57;;;;;;;3.37;93.09;91850.78;5055728;27;20192;-78
2022/03/30 05:06:30;;;;;;;10.57;7.57;;;;;;;3.44;93.41;91862.22;5058393;27;20629;-79
2022/03/30 05:08:58;;;;;;;4.87;4.63;;;;;;;3.31;93.70;91855.09;5059122;27;20588;-79
2022/03/30 05:11:26;;;;;;;4.63;4.43;;;;;;;3.60;94.57;91894.22;5059063;27;20537;-78
2022/03/30 05:13:53;;;;;;;3.77;3.47;;;;;;;3.48;93.75;91843.81;5055696;28;20583;-78
2022/03/30 05:16:21;;;;;;;5.00;4.03;;;;;;;3.69;92.72;91844.00;5055115;28;20477;-79
2022/03/30 05:18:51;;;;;;;5.63;5.23;;;;;;;3.93;92.74;91869.13;5056352;28;20469;-80
2022/03/30 05:21:19;;;;;;;4.90;4.60;;;;;;;3.91;92.67;91854.16;5057019;27;20577;-81
2022/03/30 05:23:46;;;;;;;8.23;7.53;;;;;;;3.98;92.73;91849.81;5058235;27;20584;-79
2022/03/30 05:26:14;;;;;;;12.00;10.93;;;;;;;4.13;92.78;91884.31;5056881;27;20556;-80
2022/03/30 05:28:43;;;;;;;15.73;12.63;;;;;;;3.98;91.54;91863.13;5059716;27;20295;-80
2022/03/30 05:31:11;;;;;;;23.60;16.17;;;;;;;3.77;91.06;91860.44;5059043;27;20197;-79
2022/03/30 05:33:39;;;;;;;27.60;20.83;;;;;;;4.20;91.59;91938.25;5059846;27;20583;-80
2022/03/30 05:36:13;;;;;;;25.93;14.30;;;;;;;4.05;91.79;91916.22;5058568;27;20584;-79
2022/03/30 05:39:05;;;;;;;25.73;13.73;;;;;;;3.83;91.56;91872.75;5065988;27;20502;-81
2022/03/30 05:41:33;;;;;;;19.53;16.23;;;;;;;4.02;92.34;91899.63;5062275;27;20584;-82
2022/03/30 05:44:04;;;;;;;18.17;15.63;;;;;;;3.82;92.56;91844.47;5059657;27;20583;-79
2022/03/30 05:46:31;;;;;;;10.83;9.37;;;;;;;4.05;93.23;91871.25;5058612;27;20574;-78
2022/03/30 05:48:59;;;;;;;6.43;6.07;;;;;;;4.13;93.10;91864.31;5061333;27;20224;-79
2022/03/30 05:51:28;;;;;;;5.17;4.83;;;;;;;4.25;92.96;91845.63;5055480;27;20562;-78
2022/03/30 05:53:56;;;;;;;8.17;7.20;;;;;;;4.29;92.15;91855.47;5056790;27;20482;-80
2022/03/30 05:57:00;;;;;;;3.70;3.50;;;;;;;4.43;91.80;91860.06;5056517;28;20636;-80
2022/03/30 05:59:11;;;;;;;4.63;4.33;;;;;;;4.53;91.98;91853.88;5064839;27;20246;-81
2022/03/30 06:01:39;;;;;;;6.50;5.27;;;;;;;4.63;91.32;91851.88;5059573;27;20465;-80
2022/03/30 06:04:07;;;;;;;6.90;6.27;;;;;;;4.78;90.62;91861.41;5055407;28;20498;-79
2022/03/30 06:06:36;;;;;;;7.57;6.30;;;;;;;5.42;89.74;91933.44;5054378;28;20623;-78
2022/03/30 06:09:06;;;;;;;6.97;6.53;;;;;;;5.02;89.25;91845.56;5057517;28;20476;-79
2022/03/30 06:11:34;;;;;;;7.77;7.23;;;;;;;5.11;88.48;91846.94;5053647;28;20486;-78
2022/03/30 06:14:01;;;;;;;16.80;9.47;;;;;;;5.20;88.54;91852.44;5071931;28;20604;-78
2022/03/30 06:16:29;;;;;;;10.93;9.70;;;;;;;5.30;87.80;91865.44;5065909;28;20529;-77
2022/03/30 06:18:57;;;;;;;8.67;8.13;;;;;;;5.43;88.21;91864.13;5055146;28;20579;-77
2022/03/30 06:21:24;;;;;;;21.80;13.10;;;;;;;5.68;88.25;91884.13;5055468;28;20185;-77
2022/03/30 06:23:53;;;;;;;15.30;13.03;;;;;;;5.71;87.78;91867.28;5056433;28;20486;-78
2022/03/30 06:26:21;;;;;;;14.43;10.30;;;;;;;5.71;87.49;91858.94;5055822;28;20271;-76
2022/03/30 06:28:49;;;;;;;10.30;8.20;;;;;;;5.76;87.64;91865.41;5077329;27;20196;-77
2022/03/30 06:31:17;;;;;;;14.80;13.43;;;;;;;5.87;88.07;91861.69;5079415;27;20583;-77
2022/03/30 06:33:45;;;;;;;9.77;8.97;;;;;;;6.00;87.48;91873.75;5079333;27;20672;-77
2022/03/30 06:36:13;;;;;;;24.97;8.37;;;;;;;6.38;87.29;91917.44;5080436;27;20556;-77
2022/03/30 06:38:41;;;;;;;7.93;7.23;;;;;;;6.62;86.20;91923.22;5080167;27;20522;-78
2022/03/30 06:41:12;;;;;;;10.67;9.87;;;;;;;6.41;85.49;91877.19;5079739;27;20607;-77
2022/03/30 06:43:42;;;;;;;9.73;8.93;;;;;;;6.73;84.74;91892.66;5079567;27;20519;-79
2022/03/30 06:46:10;;;;;;;7.57;7.07;;;;;;;6.77;83.67;91879.09;5078971;27;20586;-79
2022/03/30 06:48:41;;;;;;;11.37;10.53;;;;;;;7.06;82.24;91893.81;5063011;27;20639;-79
2022/03/30 06:51:09;;;;;;;9.97;9.03;;;;;;;7.04;81.93;91873.78;5071768;27;20254;-79
2022/03/30 06:53:37;;;;;;;8.10;7.60;;;;;;;7.62;80.95;91933.31;5056782;27;20545;-79
2022/03/30 06:56:08;;;;;;;5.60;5.07;;;;;;;7.59;80.12;91900.78;5058785;27;20483;-80
2022/03/30 06:58:37;;;;;;;6.17;5.97;;;;;;;7.89;78.73;91930.44;5058680;27;20512;-79
2022/03/30 07:01:07;;;;;;;11.40;9.30;;;;;;;7.84;78.01;91884.56;5057851;27;20627;-79
2022/03/30 07:03:39;;;;;;;17.97;14.00;;;;;;;8.41;75.83;91942.44;5057088;28;20554;-80
2022/03/30 07:06:07;;;;;;;15.03;9.43;;;;;;;8.43;74.52;91936.44;5057897;27;20633;-84
2022/03/30 07:11:18;;;;;;;9.40;7.17;;;;;;;8.78;72.72;91947.44;5015325;28;20472;-80
2022/03/30 07:13:47;;;;;;;6.07;5.60;;;;;;;8.93;72.06;91940.84;5058088;27;20568;-80
2022/03/30 07:16:15;;;;;;;7.47;7.03;;;;;;;8.94;71.38;91915.59;5058680;28;20477;-79
2022/03/30 07:18:42;;;;;;;20.20;7.90;;;;;;;8.98;70.22;91903.66;5058248;27;20599;-80
2022/03/30 07:21:10;;;;;;;16.40;8.53;;;;;;;9.48;70.11;91959.16;5059281;27;20584;-79
2022/03/30 07:23:37;;;;;;;11.30;8.03;;;;;;;9.13;68.87;91877.69;5058736;27;20532;-78
2022/03/30 07:26:06;;;;;;;6.90;6.27;;;;;;;9.51;68.87;91911.94;5059272;28;20541;-79
2022/03/30 07:28:35;;;;;;;13.50;9.90;;;;;;;9.74;68.66;91938.50;5059247;28;20533;-80
2022/03/30 07:31:05;;;;;;;24.70;12.00;;;;;;;9.41;70.79;91857.78;5062765;27;20487;-79
2022/03/30 07:33:33;;;;;;;21.33;12.97;;;;;;;9.55;68.49;91900.78;5058873;27;20569;-80
2022/03/30 07:36:01;;;;;;;19.27;13.23;;;;;;;9.55;72.52;91845.31;5079212;27;20640;-79
2022/03/30 07:38:28;;;;;;;28.67;13.57;;;;;;;9.82;73.36;91875.84;5078896;27;20560;-80
2022/03/30 07:41:00;;;;;;;31.20;11.13;;;;;;;10.08;72.94;91925.00;5072766;27;20565;-79
2022/03/30 07:43:27;;;;;;;25.03;12.90;;;;;;;9.75;72.99;91851.84;5058123;27;20655;-78
2022/03/30 07:45:54;;;;;;;12.73;10.07;;;;;;;10.15;70.64;91920.41;5057645;28;20561;-80
2022/03/30 07:48:25;;;;;;;17.73;9.60;;;;;;;10.34;69.87;91931.22;5057608;27;20513;-80
2022/03/30 07:50:53;;;;;;;12.93;9.83;;;;;;;10.33;69.85;91910.19;5070768;27;20434;-80
2022/03/30 07:53:24;;;;;;;12.50;8.23;;;;;;;10.51;70.49;91920.22;5065995;27;20579;-82
2022/03/30 07:55:51;;;;;;;11.00;9.60;;;;;;;10.47;69.14;91917.06;5057763;28;20197;-79
2022/03/30 07:58:20;;;;;;;13.33;7.50;;;;;;;10.18;68.33;91845.41;5057717;28;20553;-82
2022/03/30 08:00:52;;;;;;;4.80;4.50;;;;;;;10.50;66.14;91891.63;5057359;28;20668;-80
2022/03/30 08:03:27;;;;;;;8.77;6.07;;;;;;;10.74;65.05;91909.69;5059858;27;20601;-83
2022/03/30 08:06:03;;;;;;;4.27;3.90;;;;;;;11.05;62.52;91941.66;5057280;27;20649;-81
2022/03/30 08:08:30;;;;;;;5.27;4.10;;;;;;;11.32;63.85;91954.50;5057600;27;20224;-80
2022/03/30 08:10:58;;;;;;;5.13;4.80;;;;;;;11.42;62.21;91963.19;5059151;27;20546;-80
2022/03/30 08:13:26;;;;;;;6.83;5.30;;;;;;;11.15;62.32;91898.06;5071277;27;20632;-77
2022/03/30 08:15:56;;;;;;;3.27;3.00;;;;;;;11.36;61.83;91923.06;5073977;27;20481;-78
2022/03/30 08:18:24;;;;;;;3.83;3.63;;;;;;;11.31;61.74;91903.09;5076184;27;20460;-77
2022/03/30 08:23:37;;;;;;;3.40;3.20;;;;;;;11.61;59.38;91939.28;5073006;27;20526;-82
2022/03/30 08:26:05;;;;;;;15.17;3.20;;;;;;;11.45;58.88;91897.25;5055670;27;20608;-79
2022/03/30 08:28:32;;;;;;;2.63;2.53;;;;;;;11.86;59.85;91940.44;5056369;28;20557;-79
2022/03/30 08:31:00;;;;;;;4.47;4.07;;;;;;;11.52;60.94;91850.47;5066268;27;20518;-79
2022/03/30 08:33:28;;;;;;;8.87;4.80;;;;;;;12.08;61.67;91909.59;5068978;27;20458;-81
2022/03/30 08:35:59;;;;;;;4.57;4.03;;;;;;;12.00;60.93;91874.59;5061043;27;20610;-80
2022/03/30 08:38:27;;;;;;;10.87;5.57;;;;;;;12.44;60.94;91912.47;5066495;27;20489;-79
2022/03/30 08:40:58;;;;;;;5.73;5.33;;;;;;;12.23;62.30;91836.03;5064170;27;20486;-78
2022/03/30 08:43:26;;;;;;;5.93;5.43;;;;;;;12.36;58.47;91859.72;5060427;27;20273;-78
2022/03/30 08:48:37;;;;;;;5.40;4.90;;;;;;;12.88;56.70;91857.28;5070479;27;20665;-79
2022/03/30 08:51:05;;;;;;;14.30;4.22;;;;;;;13.00;56.30;91850.63;5056288;27;20519;-79
2022/03/30 08:53:33;;;;;;;4.00;3.70;;;;;;;13.43;56.00;91894.34;5056473;27;20776;-80
2022/03/30 08:56:01;;;;;;;10.60;4.43;;;;;;;13.52;54.36;91890.41;5072855;27;20578;-80
2022/03/30 09:01:29;;;;;;;4.82;4.43;;;;;;;13.67;53.42;91844.50;5055002;27;20289;-81
2022/03/30 09:04:00;;;;;;;9.35;4.85;;;;;;;14.09;53.84;91873.81;5032299;28;20492;-81
2022/03/30 09:06:38;;;;;;;4.97;4.47;;;;;;;14.28;51.92;91896.25;5033422;28;20580;-79
2022/03/30 09:09:06;;;;;;;4.45;4.05;;;;;;;14.16;51.01;91868.31;5033097;28;20585;-81
2022/03/30 09:11:45;;;;;;;5.22;4.80;;;;;;;14.38;51.13;91868.50;5031965;28;20608;-81
2022/03/30 09:14:13;;;;;;;3.75;3.45;;;;;;;14.33;50.77;91842.56;5032643;28;20538;-79
2022/03/30 09:16:45;;;;;;;4.68;4.28;;;;;;;14.53;50.08;91845.34;5032463;28;20577;-77
2022/03/30 09:19:15;;;;;;;8.27;5.80;;;;;;;14.96;48.87;91877.13;5033912;28;20635;-79
2022/03/30 09:21:44;;;;;;;5.57;4.43;;;;;;;15.07;47.13;91890.72;5032647;28;20552;-79
2022/03/30 09:24:12;;;;;;;11.27;4.57;;;;;;;15.39;47.82;91911.28;5032468;28;20557;-80
2022/03/30 09:26:40;;;;;;;5.85;5.32;;;;;;;15.53;46.59;91890.78;5032660;28;20256;-79
2022/03/30 09:29:26;;;;;;;12.15;5.43;;;;;;;15.55;46.97;91850.72;5046680;28;20565;-81
2022/03/30 09:31:56;;;;;;;9.77;4.40;;;;;;;15.62;46.04;91839.19;5053348;28;20545;-81
2022/03/30 09:34:23;;;;;;;5.97;5.47;;;;;;;15.62;45.54;91812.91;5052609;28;20468;-81
2022/03/30 09:36:54;;;;;;;6.25;4.82;;;;;;;15.93;44.38;91873.38;5051957;28;20648;-81
2022/03/30 09:39:32;;;;;;;4.75;4.25;;;;;;;16.00;45.04;91851.59;5052430;28;20549;-79
2022/03/30 09:42:01;;;;;;;6.50;5.93;;;;;;;16.42;44.49;91885.75;5051941;28;20562;-80
2022/03/30 09:44:30;;;;;;;5.50;5.03;;;;;;;16.53;43.76;91892.56;5051556;28;20533;-79
2022/03/30 09:47:05;;;;;;;4.80;4.50;;;;;;;16.28;43.59;91817.16;5045542;28;20477;-80
2022/03/30 09:49:39;;;;;;;7.70;4.90;;;;;;;16.46;42.12;91831.03;5041500;28;20711;-81
2022/03/30 09:52:14;;;;;;;5.00;4.55;;;;;;;16.51;42.19;91828.13;5032069;28;20435;-81
2022/03/30 09:54:47;;;;;;;5.25;4.72;;;;;;;16.95;42.02;91865.50;5028551;28;20569;-80
2022/03/30 09:57:16;;;;;;;7.65;4.30;;;;;;;16.90;40.88;91850.53;5029310;28;20596;-78
2022/03/30 10:00:05;;;;;;;5.55;5.15;;;;;;;17.17;40.07;91875.63;5029390;28;20506;-81
2022/03/30 10:02:38;;;;;;;5.05;4.75;;;;;;;17.31;38.07;91911.06;5044484;28;20590;-84
2022/03/30 10:05:08;;;;;;;9.75;6.28;;;;;;;17.39;39.96;91878.09;5047278;28;20228;-83
2022/03/30 10:07:36;;;;;;;4.60;3.67;;;;;;;17.23;36.40;91893.03;5051148;28;20215;-80
2022/03/30 10:10:05;;;;;;;4.20;3.90;;;;;;;17.65;35.46;91926.28;5047158;28;20681;-79
2022/03/30 10:12:33;;;;;;;10.80;4.32;;;;;;;17.32;33.79;91842.97;5034178;28;20308;-79
2022/03/30 10:15:00;;;;;;;12.10;3.47;;;;;;;17.43;33.74;91840.34;5036261;28;20486;-80
2022/03/30 10:17:29;;;;;;;7.97;3.22;;;;;;;17.60;33.52;91882.44;5038170;28;20200;-79
2022/03/30 10:20:01;;;;;;;5.25;2.83;;;;;;;17.54;33.35;91829.25;5039111;28;20592;-83
2022/03/30 10:23:19;;;;;;;2.85;2.75;;;;;;;17.98;32.27;91836.66;5036707;28;20306;-86
2022/03/30 10:26:01;;;;;;;5.63;3.70;;;;;;;18.91;30.65;91867.13;4974487;28;20495;-79
2022/03/30 10:28:54;;;;;;;6.90;3.25;;;;;;;19.60;29.63;91885.78;5017715;28;20594;-80
2022/03/30 10:31:25;;;;;;;2.90;2.70;;;;;;;19.50;29.08;91849.09;5017252;28;20577;-80
2022/03/30 10:33:54;;;;;;;11.45;4.55;;;;;;;19.78;29.78;91876.44;5018213;28;20559;-81
2022/03/30 10:36:30;;;;;;;3.08;2.88;;;;;;;19.56;28.49;91811.88;5018085;28;20589;-80
2022/03/30 10:39:25;;;;;;;6.20;3.47;;;;;;;20.13;28.13;91851.94;5029441;28;20476;-79
2022/03/30 10:41:57;;;;;;;5.00;3.75;;;;;;;19.93;28.74;91825.56;5037888;28;20475;-85
2022/03/30 10:44:49;;;;;;;3.45;3.25;;;;;;;20.30;29.11;91812.72;5037596;28;20601;-80
2022/03/30 10:47:18;;;;;;;5.75;4.20;;;;;;;21.64;27.16;91857.28;5029621;28;20232;-80
2022/03/30 10:49:48;;;;;;;3.13;2.95;;;;;;;21.62;26.54;91817.28;5031613;28;20551;-81
2022/03/30 10:52:37;;;;;;;2.92;2.72;;;;;;;21.66;25.83;91814.25;5036755;28;20634;-83
2022/03/30 10:55:38;;;;;;;2.50;2.40;;;;;;;21.90;26.06;91860.72;5036283;28;20562;-81
2022/03/30 10:58:06;;;;;;;3.00;2.80;;;;;;;21.56;26.52;91799.88;5037477;28;20553;-80
2022/03/30 11:00:41;;;;;;;9.18;2.83;;;;;;;22.04;25.56;91861.94;5037018;28;20229;-84
2022/03/30 11:03:11;;;;;;;4.78;2.95;;;;;;;22.61;25.64;91850.19;5037219;28;20188;-82
2022/03/30 11:05:40;;;;;;;5.68;2.72;;;;;;;22.40;25.27;91802.63;5028769;28;20583;-82
2022/03/30 11:08:48;;;;;;;3.00;2.78;;;;;;;22.65;25.43;91784.53;5036786;28;20644;-80
2022/03/30 11:11:30;;;;;;;3.42;3.13;;;;;;;23.13;25.47;91829.44;5033724;28;20213;-83
2022/03/30 11:14:23;;;;;;;2.45;2.25;;;;;;;22.96;26.04;91825.22;5030796;28;20494;-83
2022/03/30 11:16:52;;;;;;;2.50;2.30;;;;;;;22.08;25.41;91793.00;5028374;28;20515;-81
2022/03/30 11:19:19;;;;;;;3.00;2.80;;;;;;;21.85;25.72;91837.22;5036086;28;20566;-82
2022/03/30 11:22:03;;;;;;;2.92;2.83;;;;;;;20.21;26.76;91791.31;5036657;28;20189;-85
2022/03/30 11:24:32;;;;;;;2.83;2.60;;;;;;;20.10;27.89;91801.75;5036218;28;20194;-80
2022/03/30 11:27:21;;;;;;;13.98;3.00;;;;;;;19.96;28.58;91809.06;5030235;28;20614;-80
2022/03/30 11:30:03;;;;;;;3.00;2.80;;;;;;;19.79;29.79;91798.59;5017178;28;20502;-78
2022/03/30 11:32:58;;;;;;;6.03;3.00;;;;;;;19.59;29.07;91760.38;5017233;28;20553;-80
2022/03/30 11:35:28;;;;;;;6.32;3.35;;;;;;;19.61;28.07;91772.06;5015894;28;20487;-81
2022/03/30 11:38:07;;;;;;;5.93;2.58;;;;;;;19.36;28.30;91750.41;5017405;28;20521;-76
2022/03/30 11:40:43;;;;;;;3.88;3.55;;;;;;;19.33;28.82;91762.66;5017216;28;20504;-79
2022/03/30 11:43:12;;;;;;;2.92;2.35;;;;;;;19.30;28.68;91773.19;5015741;28;20566;-77
2022/03/30 11:45:40;;;;;;;7.65;5.07;;;;;;;19.21;29.06;91736.41;5015138;28;20609;-78
2022/03/30 11:48:10;;;;;;;3.33;3.13;;;;;;;19.26;29.06;91720.63;5015573;28;20589;-78
2022/03/30 11:50:39;;;;;;;2.67;2.47;;;;;;;19.23;28.49;91733.72;5016324;28;20678;-78
2022/03/30 11:53:09;;;;;;;2.33;2.22;;;;;;;19.21;27.89;91759.44;5015452;28;20213;-76
2022/03/30 11:55:51;;;;;;;2.30;2.20;;;;;;;19.29;28.32;91794.63;5016057;28;20679;-78
2022/03/30 11:58:29;;;;;;;2.20;2.10;;;;;;;18.98;29.57;91778.63;5015893;28;20202;-79
2022/03/30 12:00:58;;;;;;;2.70;2.50;;;;;;;18.71;29.69;91742.63;5015362;28;20675;-80
2022/03/30 12:03:30;;;;;;;2.97;2.83;;;;;;;18.46;29.08;91726.03;5019357;28;20481;-77
2022/03/30 12:05:59;;;;;;;2.67;2.47;;;;;;;18.59;29.31;91741.97;5018535;28;20562;-81
2022/03/30 12:08:28;;;;;;;2.15;2.05;;;;;;;18.54;28.84;91709.09;5019394;28;20199;-78